AirNav   Everest Fuels
 
 1704 users online  

41AZ Farms Airport
Maricopa, Arizona, USA

GOING TO MARICOPA?


FAA INFORMATION EFFECTIVE 04 NOVEMBER 2021

Location

FAA Identifier: 41AZ
Lat/Long: 32-59-10.1850N 112-01-32.5060W
32-59.169750N 112-01.541767W
32.9861625,-112.0256961
(estimated)
Elevation: 1210 ft. / 369 m (estimated)
Variation: 12E (1985)
From city: 4 miles SE of MARICOPA, AZ
Time zone: UTC -7 (year round; does not observe DST)
Zip code: 85239

Airport Operations

Airport use: Private use. Permission required prior to landing
Activation date: 01/1979
Control tower: no
ARTCC: ALBUQUERQUE CENTER
FSS: PRESCOTT FLIGHT SERVICE STATION
Attendance: UNATNDD
Wind indicator: yes
Segmented circle: no

Airport Communications

WX AWOS-3 at A39 (5 nm E): 126.900 (520-568-7704)
WX AWOS-3PT at CGZ (13 nm E): 132.175 (520-836-3392)

Nearby radio navigation aids

VOR radial/distance  VOR name  Freq  Var
TFDr304/8.4STANFIELD VORTAC114.8012E
IWAr212/26.7WILLIE VORTAC113.3013E
PXRr174/27.0PHOENIX VORTAC115.6012E
GBNr073/32.7GILA BEND VORTAC116.6014E

Airport Services

Parking: tiedowns

Runway Information

Runway 17/35

Dimensions: 2950 x 35 ft. / 899 x 11 m
Surface: asphalt, in fair condition
RUNWAY 17  RUNWAY 35
Traffic pattern: rightright
Obstructions: 10 ft. road, 200 ft. from runway
+5' TANK 40' RIGHT.
15 ft. trees, 200 ft. from runway, 80 ft. left of centerline
20' TREES 80' LEFT.

Airport Ownership and Management from official FAA records

Ownership: Publicly-owned
Owner: AK CHIN INDIAN COMMUNITY
42507 PETERS & NALL ROAD
MARICOPA, AZ 85238
Phone 520-568-1000
Manager: STEVE COESTER
42507 PETERS & NALL ROAD
MARICOPA, AZ 85238
Phone 520-568-1000

Airport Operational Statistics

Aircraft operations: avg 82/week *
93% local general aviation
7% transient general aviation
* for 12-month period ending 17 October 1984

Additional Remarks

+3' EMBANKMENT AND DRAINAGE DITCH EAST SIDE OF RWY, 35' FM CNTRLN.
ROAD AND 3' EMBANKMENT WEST SIDE OF RWY, 35' FM CNTRLN.
ADDITIONAL CONTACT: TIM COSTELLO - 520-568-1680
FOR CD CTC ALBUQUERQUE ARTCC AT 505-856-4861.

Instrument Procedures

There are no published instrument procedures at 41AZ.

Some nearby airports with instrument procedures:

KCGZ - Casa Grande Municipal Airport (13 nm E)
P19 - Stellar Airpark (20 nm N)
KCHD - Chandler Municipal Airport (20 nm NE)
KIWA - Phoenix-Mesa Gateway Airport (27 nm NE)
KPHX - Phoenix Sky Harbor International Airport (27 nm N)
 
Loc | Ops | Rwys | IFR | FBO | Links
Com | Nav | Svcs | Stats | Notes
Area around 41AZ (Farms Airport)
 
Road maps at: MapQuest Bing Google
 
Aerial photo
WARNING: Photo may not be current or correct
Aerial photo of 41AZ (Farms Airport)
Do you have a better or more recent aerial photo of Farms Airport that you would like to share? If so, please send us your photo.

 
Sectional chart

 
Airport distance calculator
Flying to Farms Airport? Find the distance to fly.

From to 41AZ

Sunrise and sunset
Times for 30-Nov-2021
 Local
(UTC-7)
 Zulu
(UTC)
Morning civil twilight06:4613:46
Sunrise07:1314:13
Sunset17:2000:20
Evening civil twilight17:4700:47

Current date and time
Zulu (UTC)  30-Nov-2021 15:44:36
Local (UTC-7)  30-Nov-2021 08:44:36
 
METAR
KA39 
5nm E 
301535Z AUTO 16006KT 10SM CLR 11/M02 A3013 RMK AO2
KCGZ 
13nm E 
301456Z AUTO 00000KT 10SM CLR 10/M03 A3008 RMK AO2 SLP184 6//// T01001028 53016
KCHD 
20nm NE 
301447Z 08005KT 10SM CLR 10/01 A3008
TAF
KIWA 
27nm NE 
301120Z 3012/0112 12005KT P6SM FEW200 FM301900 28005KT P6SM FEW250 FM010300 10005KT P6SM SKC
KPHX 
27nm N 
301120Z 3012/0118 11005KT P6SM FEW250 FM302200 29005KT P6SM FEW250 FM010200 32005KT P6SM FEW250 FM010500 09005KT P6SM SKC
NOTAMs
Click for the latest NOTAMs
NOTAMs are issued by the DoD/FAA and will open in a separate window not controlled by AirNav.

 

 
 

Would you like to see your business listed on this page?

 If your business provides an interesting product or service to pilots, flight crews, aircraft, or users of the Farms Airport, you should consider listing it here.  To start the listing process, click on the button below
 
Add a business
 

Other Pages about Farms Airport

Update a link
 
Copyright © AirNav, LLC. All rights reserved. Privacy Policy  Contact